sensor_id;sensor_type;location;lat;lon;timestamp;P1;durP1;ratioP1;P2;durP2;ratioP2
12770;SDS011;6449;47.666;9.160;2022-07-29T09:06:42;2.70;;;2.00;;
12770;SDS011;6449;47.666;9.160;2022-07-29T09:32:14;1.80;;;1.45;;
12770;SDS011;6449;47.666;9.160;2022-07-29T11:56:51;2.30;;;2.10;;
12770;SDS011;6449;47.666;9.160;2022-07-29T12:12:08;2.08;;;1.98;;
12770;SDS011;6449;47.666;9.160;2022-07-29T12:49:20;3.28;;;2.97;;
12770;SDS011;6449;47.666;9.160;2022-07-29T12:54:28;3.67;;;3.25;;
12770;SDS011;6449;47.666;9.160;2022-07-29T12:59:23;5.28;;;3.67;;
12770;SDS011;6449;47.666;9.160;2022-07-29T13:04:26;3.97;;;3.58;;
12770;SDS011;6449;47.666;9.160;2022-07-29T13:09:38;4.65;;;3.50;;
12770;SDS011;6449;47.666;9.160;2022-07-29T13:15:11;4.18;;;3.40;;
12770;SDS011;6449;47.666;9.160;2022-07-29T13:25:23;4.00;;;3.70;;
12770;SDS011;6449;47.666;9.160;2022-07-29T13:36:41;4.90;;;3.35;;
12770;SDS011;6449;47.666;9.160;2022-07-29T13:41:39;3.47;;;3.17;;
12770;SDS011;6449;47.666;9.160;2022-07-29T13:51:50;3.33;;;2.70;;
12770;SDS011;6449;47.666;9.160;2022-07-29T13:57:27;2.17;;;2.08;;
12770;SDS011;6449;47.666;9.160;2022-07-29T14:02:29;2.50;;;2.30;;
12770;SDS011;6449;47.666;9.160;2022-07-29T14:12:51;2.30;;;2.10;;
12770;SDS011;6449;47.666;9.160;2022-07-29T14:17:45;2.13;;;2.03;;
12770;SDS011;6449;47.666;9.160;2022-07-29T14:22:40;2.20;;;2.10;;
12770;SDS011;6449;47.666;9.160;2022-07-29T14:27:38;3.55;;;2.15;;
12770;SDS011;6449;47.666;9.160;2022-07-29T14:32:32;3.13;;;2.90;;
12770;SDS011;6449;47.666;9.160;2022-07-29T14:37:25;2.63;;;2.42;;
12770;SDS011;6449;47.666;9.160;2022-07-29T14:42:30;3.20;;;2.63;;
12770;SDS011;6449;47.666;9.160;2022-07-29T14:47:25;4.22;;;2.45;;
12770;SDS011;6449;47.666;9.160;2022-07-29T14:52:19;3.25;;;2.75;;
12770;SDS011;6449;47.666;9.160;2022-07-29T14:57:13;3.33;;;3.00;;
12770;SDS011;6449;47.666;9.160;2022-07-29T15:02:11;3.00;;;2.70;;
12770;SDS011;6449;47.666;9.160;2022-07-29T15:12:22;2.70;;;2.50;;
12770;SDS011;6449;47.666;9.160;2022-07-29T15:17:46;2.80;;;2.60;;
12770;SDS011;6449;47.666;9.160;2022-07-29T15:22:46;2.58;;;2.38;;
12770;SDS011;6449;47.666;9.160;2022-07-29T15:28:01;2.72;;;2.53;;
12770;SDS011;6449;47.666;9.160;2022-07-29T15:38:16;2.78;;;2.58;;
12770;SDS011;6449;47.666;9.160;2022-07-29T15:43:19;4.32;;;2.80;;
12770;SDS011;6449;47.666;9.160;2022-07-29T15:48:16;2.55;;;2.35;;
12770;SDS011;6449;47.666;9.160;2022-07-29T15:53:32;2.63;;;2.40;;
12770;SDS011;6449;47.666;9.160;2022-07-29T15:58:32;2.95;;;2.60;;
12770;SDS011;6449;47.666;9.160;2022-07-29T16:03:39;3.53;;;2.50;;
12770;SDS011;6449;47.666;9.160;2022-07-29T16:08:40;2.97;;;2.53;;
12770;SDS011;6449;47.666;9.160;2022-07-29T16:13:34;2.97;;;2.78;;
12770;SDS011;6449;47.666;9.160;2022-07-29T16:18:28;2.90;;;2.53;;
12770;SDS011;6449;47.666;9.160;2022-07-29T16:23:22;2.55;;;2.35;;
12770;SDS011;6449;47.666;9.160;2022-07-29T16:33:55;2.65;;;2.45;;
12770;SDS011;6449;47.666;9.160;2022-07-29T16:38:56;3.75;;;2.70;;
12770;SDS011;6449;47.666;9.160;2022-07-29T16:43:56;4.72;;;2.75;;
12770;SDS011;6449;47.666;9.160;2022-07-29T16:49:13;3.60;;;2.38;;
12770;SDS011;6449;47.666;9.160;2022-07-29T16:54:24;5.80;;;2.53;;
12770;SDS011;6449;47.666;9.160;2022-07-29T16:59:24;2.20;;;2.10;;
12770;SDS011;6449;47.666;9.160;2022-07-29T17:09:55;2.88;;;2.67;;
12770;SDS011;6449;47.666;9.160;2022-07-29T17:14:58;3.20;;;2.90;;
12770;SDS011;6449;47.666;9.160;2022-07-29T17:20:03;3.10;;;2.80;;
12770;SDS011;6449;47.666;9.160;2022-07-29T17:25:43;2.70;;;2.50;;
12770;SDS011;6449;47.666;9.160;2022-07-29T17:35:58;3.80;;;3.00;;
12770;SDS011;6449;47.666;9.160;2022-07-29T17:41:17;3.17;;;2.63;;
12770;SDS011;6449;47.666;9.160;2022-07-29T17:56:50;3.72;;;3.25;;
12770;SDS011;6449;47.666;9.160;2022-07-29T18:01:43;2.95;;;2.75;;
12770;SDS011;6449;47.666;9.160;2022-07-29T18:06:38;3.60;;;3.05;;
12770;SDS011;6449;47.666;9.160;2022-07-29T18:11:40;3.33;;;2.80;;
12770;SDS011;6449;47.666;9.160;2022-07-29T18:42:29;2.30;;;2.10;;
12770;SDS011;6449;47.666;9.160;2022-07-29T18:47:23;2.97;;;2.72;;
12770;SDS011;6449;47.666;9.160;2022-07-29T19:07:45;3.08;;;2.75;;
12770;SDS011;6449;47.666;9.160;2022-07-29T19:12:38;2.58;;;2.20;;
12770;SDS011;6449;47.666;9.160;2022-07-29T19:17:32;2.63;;;2.42;;
12770;SDS011;6449;47.666;9.160;2022-07-29T19:48:19;2.25;;;2.03;;
12770;SDS011;6449;47.666;9.160;2022-07-29T19:53:13;3.38;;;2.60;;
12770;SDS011;6449;47.666;9.160;2022-07-29T20:08:28;1.88;;;1.77;;
12770;SDS011;6449;47.666;9.160;2022-07-29T20:13:23;3.20;;;2.00;;
12770;SDS011;6449;47.666;9.160;2022-07-29T20:18:16;2.20;;;2.00;;
12770;SDS011;6449;47.666;9.160;2022-07-29T20:23:10;2.17;;;1.98;;
12770;SDS011;6449;47.666;9.160;2022-07-29T20:28:04;2.00;;;1.90;;
12770;SDS011;6449;47.666;9.160;2022-07-29T20:32:58;2.13;;;1.98;;
12770;SDS011;6449;47.666;9.160;2022-07-29T20:37:51;2.03;;;1.88;;
12770;SDS011;6449;47.666;9.160;2022-07-29T20:42:46;2.35;;;2.15;;
12770;SDS011;6449;47.666;9.160;2022-07-29T20:47:41;2.13;;;2.03;;
12770;SDS011;6449;47.666;9.160;2022-07-29T20:57:45;2.20;;;2.10;;
12770;SDS011;6449;47.666;9.160;2022-07-29T21:02:38;2.53;;;2.33;;
12770;SDS011;6449;47.666;9.160;2022-07-29T21:07:39;2.75;;;2.55;;
12770;SDS011;6449;47.666;9.160;2022-07-29T21:43:29;2.80;;;2.60;;
12770;SDS011;6449;47.666;9.160;2022-07-29T21:48:23;2.85;;;2.55;;
12770;SDS011;6449;47.666;9.160;2022-07-29T21:53:19;2.30;;;2.10;;
12770;SDS011;6449;47.666;9.160;2022-07-29T22:03:29;2.40;;;2.20;;
12770;SDS011;6449;47.666;9.160;2022-07-29T22:08:22;2.65;;;2.45;;
12770;SDS011;6449;47.666;9.160;2022-07-29T22:23:38;3.25;;;2.50;;
12770;SDS011;6449;47.666;9.160;2022-07-29T22:28:32;2.70;;;2.50;;
12770;SDS011;6449;47.666;9.160;2022-07-29T22:33:25;2.60;;;2.40;;
12770;SDS011;6449;47.666;9.160;2022-07-29T22:38:19;2.50;;;2.30;;
12770;SDS011;6449;47.666;9.160;2022-07-29T22:43:14;3.10;;;2.38;;
12770;SDS011;6449;47.666;9.160;2022-07-29T22:48:07;2.78;;;2.45;;
12770;SDS011;6449;47.666;9.160;2022-07-29T22:53:01;3.38;;;2.72;;
12770;SDS011;6449;47.666;9.160;2022-07-29T22:57:55;3.47;;;2.60;;
12770;SDS011;6449;47.666;9.160;2022-07-29T23:08:00;3.80;;;2.50;;
12770;SDS011;6449;47.666;9.160;2022-07-29T23:12:53;2.28;;;2.08;;
12770;SDS011;6449;47.666;9.160;2022-07-29T23:22:59;3.22;;;2.70;;
12770;SDS011;6449;47.666;9.160;2022-07-29T23:27:53;2.60;;;2.30;;
12770;SDS011;6449;47.666;9.160;2022-07-29T23:32:46;2.60;;;2.40;;
12770;SDS011;6449;47.666;9.160;2022-07-29T23:42:52;1.95;;;1.85;;
12770;SDS011;6449;47.666;9.160;2022-07-29T23:47:45;6.13;;;2.83;;
12770;SDS011;6449;47.666;9.160;2022-07-29T23:52:39;6.07;;;2.45;;
12770;SDS011;6449;47.666;9.160;2022-07-29T23:57:32;2.28;;;2.08;;
